Time;durP1;ratioP1;P1;durP2;ratioP2;P2;SDS_P1;SDS_P2;PMS_P1;PMS_P2;Temp;Humidity;BMP_temperature;BMP_pressure;BME280_temperature;BME280_humidity;BME280_pressure;Samples;Min_cycle;Max_cycle;Signal;HPM_P1;HPM_P2
2023/05/19 00:04:14;;;;;;;5.80;1.10;;;;;;;9.58;71.56;101695.18;216920;1288;137796;-94
2023/05/19 00:09:14;;;;;;;4.20;1.50;;;;;;;9.54;71.49;101693.08;216456;1288;140013;-91
2023/05/19 00:14:15;;;;;;;10.30;1.80;;;;;;;9.49;71.53;101689.87;216977;1292;137894;-92
2023/05/19 00:19:15;;;;;;;8.20;1.80;;;;;;;9.45;71.74;101686.41;216521;1287;138275;-93
2023/05/19 00:24:16;;;;;;;6.10;2.10;;;;;;;9.40;72.19;101680.20;216985;1288;137647;-92
2023/05/19 00:29:17;;;;;;;6.70;1.90;;;;;;;9.36;72.19;101679.48;216466;1288;138389;-92
2023/05/19 00:34:18;;;;;;;6.70;1.90;;;;;;;9.31;72.37;101670.13;216853;1288;137820;-94
2023/05/19 00:39:18;;;;;;;6.10;2.00;;;;;;;9.27;72.57;101670.36;216438;1288;138707;-91
2023/05/19 00:44:18;;;;;;;6.90;1.80;;;;;;;9.23;72.50;101668.81;216803;1288;138999;-92
2023/05/19 00:49:19;;;;;;;5.00;1.70;;;;;;;9.19;72.96;101670.23;216835;1288;138493;-92
2023/05/19 00:54:20;;;;;;;4.10;1.70;;;;;;;9.15;72.98;101669.94;217117;1288;138510;-91
2023/05/19 00:59:21;;;;;;;5.20;1.60;;;;;;;9.11;73.55;101668.20;216509;1287;139268;-93
2023/05/19 01:04:24;;;;;;;7.20;2.50;;;;;;;9.07;73.49;101664.00;216831;1288;139472;-92
2023/05/19 01:09:24;;;;;;;7.80;2.40;;;;;;;9.02;73.71;101663.83;216415;1288;138813;-91
2023/05/19 01:14:25;;;;;;;5.30;1.30;;;;;;;8.97;73.87;101665.67;216856;1287;138597;-91
2023/05/19 01:20:00;;;;;;;6.60;1.90;;;;;;;8.90;74.46;101663.05;216423;1288;138817;-92
2023/05/19 01:25:36;;;;;;;7.50;2.00;;;;;;;8.83;75.09;101668.19;216988;1292;97955;-93
2023/05/19 01:30:40;;;;;;;5.90;1.80;;;;;;;8.76;75.49;101674.05;216312;1292;139390;-95
2023/05/19 01:35:42;;;;;;;6.90;2.00;;;;;;;8.71;75.62;101676.52;216940;1288;139912;-93
2023/05/19 01:40:44;;;;;;;6.00;1.70;;;;;;;8.70;75.66;101684.52;216303;1288;138810;-94
2023/05/19 01:45:46;;;;;;;5.70;1.40;;;;;;;8.67;76.27;101688.36;216940;1288;138969;-92
2023/05/19 01:50:47;;;;;;;4.60;1.30;;;;;;;8.65;76.15;101692.95;216407;1288;139053;-93
2023/05/19 01:55:50;;;;;;;5.10;1.40;;;;;;;8.62;76.40;101692.95;216874;1288;138658;-93
2023/05/19 02:00:57;;;;;;;5.80;1.50;;;;;;;8.61;77.03;101689.98;216359;1288;138899;-93
2023/05/19 02:06:16;;;;;;;;;;;;;;;8.59;76.99;101690.80;216952;1292;138698;-95
2023/05/19 02:11:30;;;;;;;6.00;1.40;;;;;;;8.55;77.56;101690.70;216479;1292;125796;-93
2023/05/19 02:16:32;;;;;;;3.80;1.40;;;;;;;8.52;77.33;101686.11;216906;1292;139647;-93
2023/05/19 02:21:32;;;;;;;6.00;1.30;;;;;;;8.50;77.48;101688.55;216463;1288;139110;-93
2023/05/19 02:26:33;;;;;;;3.70;1.10;;;;;;;8.48;77.36;101690.36;216756;1288;139004;-92
2023/05/19 02:31:33;;;;;;;6.20;1.60;;;;;;;8.47;77.54;101686.38;216433;1288;138663;-94
2023/05/19 02:36:37;;;;;;;4.50;1.70;;;;;;;8.45;77.64;101684.02;216966;1288;138754;-92
2023/05/19 02:41:38;;;;;;;4.50;1.50;;;;;;;8.42;77.96;101679.94;216194;1292;282858;-92
2023/05/19 02:46:38;;;;;;;6.70;1.80;;;;;;;8.41;78.04;101675.71;216898;1288;138406;-92
2023/05/19 02:51:39;;;;;;;4.50;1.60;;;;;;;8.39;78.43;101672.73;216409;1288;139768;-94
2023/05/19 02:56:39;;;;;;;4.00;1.70;;;;;;;8.37;78.44;101675.33;216855;1288;138762;-92
2023/05/19 03:01:40;;;;;;;5.40;1.80;;;;;;;8.34;78.84;101675.86;216409;1288;139570;-92
2023/05/19 03:06:41;;;;;;;7.80;1.60;;;;;;;8.33;78.95;101674.31;217058;1288;98532;-94
2023/05/19 03:11:41;;;;;;;8.20;2.10;;;;;;;8.31;79.20;101672.90;216417;1287;138873;-94
2023/05/19 03:16:41;;;;;;;6.90;1.90;;;;;;;8.31;79.36;101670.71;216831;1288;138557;-92
2023/05/19 03:21:42;;;;;;;6.20;1.80;;;;;;;8.32;79.56;101671.22;216417;1292;138945;-93
2023/05/19 03:26:42;;;;;;;5.60;1.90;;;;;;;8.32;79.95;101668.38;216872;1288;138413;-93
2023/05/19 03:31:43;;;;;;;6.00;1.80;;;;;;;8.34;79.82;101670.51;216364;1288;138683;-93
2023/05/19 03:36:43;;;;;;;5.00;1.90;;;;;;;8.35;79.69;101666.71;217046;1288;97976;-93
2023/05/19 03:41:44;;;;;;;8.00;2.70;;;;;;;8.38;79.78;101673.98;216429;1288;138769;-91
2023/05/19 03:46:44;;;;;;;4.70;1.80;;;;;;;8.41;79.89;101678.00;216923;1288;140017;-93
2023/05/19 03:51:44;;;;;;;6.40;1.70;;;;;;;8.44;79.99;101675.86;216351;1288;139032;-92
2023/05/19 03:56:45;;;;;;;5.80;1.40;;;;;;;8.49;80.45;101676.98;216967;1288;138782;-94
2023/05/19 04:01:46;;;;;;;4.80;1.70;;;;;;;8.54;80.44;101682.67;216434;1288;138519;-92
2023/05/19 04:06:47;;;;;;;6.50;1.70;;;;;;;8.58;80.54;101682.35;217084;1288;97945;-92
2023/05/19 04:11:48;;;;;;;5.90;2.00;;;;;;;8.62;80.52;101685.27;216425;1288;138948;-94
2023/05/19 04:16:49;;;;;;;5.00;1.60;;;;;;;8.68;80.67;101683.13;216953;1292;139291;-92
2023/05/19 04:21:50;;;;;;;5.20;2.00;;;;;;;8.74;80.54;101682.20;216372;1288;139761;-92
2023/05/19 04:26:52;;;;;;;8.90;1.80;;;;;;;8.82;80.46;101684.92;216936;1287;138549;-94
2023/05/19 04:31:52;;;;;;;5.90;2.20;;;;;;;8.90;80.73;101686.17;216414;1288;139132;-94
2023/05/19 04:36:54;;;;;;;6.30;1.60;;;;;;;8.98;80.85;101685.54;217000;1288;104307;-93
2023/05/19 04:41:55;;;;;;;4.80;1.70;;;;;;;9.07;81.24;101685.33;216469;1288;139409;-92
2023/05/19 04:46:56;;;;;;;6.20;1.60;;;;;;;9.16;80.78;101685.98;216944;1288;139578;-94
2023/05/19 04:51:57;;;;;;;9.10;2.10;;;;;;;9.27;80.98;101683.11;216476;1288;139406;-93
2023/05/19 04:56:57;;;;;;;10.00;1.90;;;;;;;9.38;81.13;101686.55;216996;1287;138644;-94
2023/05/19 05:01:57;;;;;;;5.60;1.80;;;;;;;9.50;80.68;101688.37;216357;1288;139338;-93
2023/05/19 05:06:58;;;;;;;5.60;1.80;;;;;;;9.62;80.54;101697.20;217031;1287;97975;-93
2023/05/19 05:11:59;;;;;;;6.90;1.80;;;;;;;9.76;80.42;101703.23;216426;1288;138234;-95
2023/05/19 05:17:00;;;;;;;4.70;1.80;;;;;;;9.91;80.04;101701.46;216864;1288;138448;-95
2023/05/19 05:22:01;;;;;;;10.90;2.20;;;;;;;10.07;80.36;101701.62;217216;1288;139410;-91
2023/05/19 05:27:01;;;;;;;5.60;2.30;;;;;;;10.26;80.07;101700.80;217445;1288;137647;-92
2023/05/19 05:32:09;;;;;;;7.90;2.40;;;;;;;10.47;79.92;101697.03;216244;1288;138779;-95
2023/05/19 05:37:10;;;;;;;7.50;2.00;;;;;;;10.73;79.41;101698.23;217144;1288;110422;-95
2023/05/19 05:42:31;;;;;;;11.10;2.50;;;;;;;11.01;79.93;101691.72;216655;1288;138442;-95
2023/05/19 05:47:33;;;;;;;5.80;2.30;;;;;;;11.45;79.59;101688.33;217412;1288;139369;-92
2023/05/19 05:52:36;;;;;;;6.50;2.00;;;;;;;11.92;78.66;101692.06;216319;1288;138886;-91
2023/05/19 05:57:55;;;;;;;5.10;2.20;;;;;;;12.41;78.53;101687.59;216705;1292;138706;-93
2023/05/19 06:02:57;;;;;;;8.50;3.00;;;;;;;12.93;77.41;101689.20;216313;1292;138706;-90
2023/05/19 06:08:00;;;;;;;5.10;2.00;;;;;;;13.27;75.76;101687.02;216670;1288;139755;-92
2023/05/19 06:13:01;;;;;;;8.00;2.30;;;;;;;13.57;74.80;101693.14;216465;1288;138503;-91
2023/05/19 06:18:02;;;;;;;7.80;2.70;;;;;;;13.71;73.55;101696.15;216670;1292;138577;-90
2023/05/19 06:23:02;;;;;;;8.60;2.90;;;;;;;13.94;73.82;101701.02;216136;1288;138723;-88
2023/05/19 06:28:03;;;;;;;7.10;2.70;;;;;;;14.10;72.31;101705.02;216794;1288;138869;-86
2023/05/19 06:33:03;;;;;;;8.20;2.30;;;;;;;14.13;71.41;101701.89;216156;1288;140317;-87
2023/05/19 06:38:04;;;;;;;6.70;2.60;;;;;;;14.29;72.32;101706.06;216713;1288;138856;-92
2023/05/19 06:43:04;;;;;;;9.60;2.80;;;;;;;14.63;71.88;101709.30;216419;1288;139484;-93
2023/05/19 06:48:05;;;;;;;10.60;2.80;;;;;;;14.81;70.11;101709.95;217157;1288;139007;-91
2023/05/19 06:53:05;;;;;;;8.50;2.70;;;;;;;15.04;69.74;101705.29;216555;1288;139789;-90
2023/05/19 06:58:06;;;;;;;5.90;2.40;;;;;;;15.32;69.42;101706.63;217099;1288;138970;-96
2023/05/19 07:03:06;;;;;;;6.10;2.50;;;;;;;15.45;67.07;101705.98;216618;1292;139005;-90
2023/05/19 07:08:07;;;;;;;7.50;2.90;;;;;;;15.51;66.82;101708.14;216883;1288;138053;-90
2023/05/19 07:13:07;;;;;;;8.90;2.40;;;;;;;15.75;66.98;101708.15;216484;1288;137927;-86
2023/05/19 07:18:08;;;;;;;6.80;2.90;;;;;;;15.91;66.00;101711.73;216931;1288;137959;-91
2023/05/19 07:23:08;;;;;;;6.80;3.00;;;;;;;15.94;64.70;101713.35;216392;1288;138342;-92
2023/05/19 07:28:08;;;;;;;7.00;2.50;;;;;;;15.89;64.20;101713.05;217069;1287;138501;-94
2023/05/19 07:33:10;;;;;;;6.80;2.70;;;;;;;16.00;64.69;101708.02;216408;1288;137999;-89
2023/05/19 07:38:10;;;;;;;7.70;2.40;;;;;;;16.12;64.46;101703.90;216949;1288;138141;-89
2023/05/19 07:43:11;;;;;;;6.30;2.00;;;;;;;16.32;64.97;101697.89;216638;1288;138191;-90
2023/05/19 07:48:12;;;;;;;6.10;2.20;;;;;;;16.52;64.71;101700.70;216943;1288;136918;-90
2023/05/19 07:59:12;;;;;;;4.20;1.90;;;;;;;16.88;62.74;101697.04;215777;1292;138433;-91
2023/05/19 08:04:33;;;;;;;5.70;2.30;;;;;;;16.97;62.44;101689.77;216667;1292;138123;-91
2023/05/19 08:09:34;;;;;;;7.30;2.30;;;;;;;17.12;63.26;101691.74;216355;1288;138350;-92
2023/05/19 08:20:33;;;;;;;5.00;1.70;;;;;;;17.26;61.56;101690.06;215208;1297;138264;-92
2023/05/19 08:25:33;;;;;;;9.90;2.70;;;;;;;17.63;62.31;101687.11;216865;1288;98123;-92
2023/05/19 08:30:34;;;;;;;5.60;2.00;;;;;;;17.72;60.31;101688.56;216266;1288;137751;-94
2023/05/19 08:35:35;;;;;;;11.00;2.30;;;;;;;17.79;60.77;101689.52;216806;1288;136759;-94
2023/05/19 08:40:40;;;;;;;7.20;1.80;;;;;;;17.85;59.84;101691.36;216222;1288;138349;-91
2023/05/19 08:45:47;;;;;;;5.20;1.60;;;;;;;18.06;58.73;101689.56;216831;1292;138018;-93
2023/05/19 08:51:02;;;;;;;4.10;1.60;;;;;;;18.20;59.06;101687.02;216213;1292;138172;-93
2023/05/19 08:56:21;;;;;;;7.70;2.20;;;;;;;18.43;59.31;101681.77;216813;1292;138823;-93
2023/05/19 09:01:23;;;;;;;5.40;2.00;;;;;;;18.68;58.56;101681.66;216377;1292;138456;-93
2023/05/19 09:06:24;;;;;;;5.00;2.10;;;;;;;19.09;59.23;101680.19;216906;1288;138225;-93
2023/05/19 09:11:26;;;;;;;5.20;1.90;;;;;;;19.38;57.42;101678.16;216211;1288;138300;-93
2023/05/19 09:16:27;;;;;;;6.50;2.30;;;;;;;19.40;57.38;101672.26;216773;1288;138027;-93
2023/05/19 09:21:32;;;;;;;5.40;2.20;;;;;;;19.60;55.93;101674.79;216095;1289;138470;-92
2023/05/19 09:26:40;;;;;;;3.30;1.80;;;;;;;19.63;55.65;101675.48;216771;1288;136918;-94
2023/05/19 09:31:59;;;;;;;10.80;2.40;;;;;;;19.73;55.05;101674.46;216304;1292;137550;-91
2023/05/19 09:36:59;;;;;;;6.80;2.20;;;;;;;19.62;52.98;101673.98;216890;1292;105848;-95
2023/05/19 09:42:04;;;;;;;4.80;2.00;;;;;;;19.55;53.26;101672.73;216443;1288;138000;-94
2023/05/19 09:47:04;;;;;;;5.00;1.80;;;;;;;19.98;54.65;101667.98;216972;1292;138121;-93
2023/05/19 09:52:07;;;;;;;7.90;2.50;;;;;;;20.15;52.27;101668.90;216279;1288;138265;-91
2023/05/19 09:57:08;;;;;;;5.60;2.10;;;;;;;20.01;51.21;101667.55;216844;1288;138215;-92
2023/05/19 10:02:15;;;;;;;6.10;2.30;;;;;;;19.82;51.41;101664.83;216332;1288;138922;-93
2023/05/19 10:07:17;;;;;;;5.00;2.00;;;;;;;19.85;50.99;101669.58;216859;1288;112098;-92
2023/05/19 10:12:18;;;;;;;5.80;1.90;;;;;;;19.38;50.37;101670.52;216415;1288;138483;-89
2023/05/19 10:17:18;;;;;;;6.50;2.20;;;;;;;19.12;50.44;101670.13;216694;1289;138164;-89
2023/05/19 10:22:19;;;;;;;7.30;2.10;;;;;;;18.88;50.64;101669.34;216308;1287;138080;-92
2023/05/19 10:27:20;;;;;;;5.30;2.30;;;;;;;18.76;51.52;101666.27;216686;1288;139073;-90
2023/05/19 10:32:25;;;;;;;5.00;2.10;;;;;;;18.64;51.48;101668.44;216349;1288;138334;-89
2023/05/19 10:38:03;;;;;;;6.40;2.30;;;;;;;18.40;52.50;101675.81;216920;1289;111141;-92
2023/05/19 10:43:11;;;;;;;4.20;2.00;;;;;;;18.43;53.28;101676.35;216354;1288;137881;-91
2023/05/19 10:48:18;;;;;;;4.80;1.80;;;;;;;18.35;51.94;101672.14;216774;1288;137966;-93
2023/05/19 10:53:21;;;;;;;5.90;2.30;;;;;;;18.21;52.51;101671.02;216148;1288;137969;-92
2023/05/19 10:58:43;;;;;;;5.00;2.10;;;;;;;18.16;52.52;101671.57;216703;1288;138034;-92
2023/05/19 11:03:52;;;;;;;5.20;2.20;;;;;;;18.08;52.54;101671.88;216247;1292;138238;-91
2023/05/19 11:09:18;;;;;;;4.50;2.10;;;;;;;17.83;52.86;101670.03;216592;1292;136901;-90
2023/05/19 11:14:25;;;;;;;7.00;2.30;;;;;;;17.95;53.63;101666.05;216626;1292;138168;-89
2023/05/19 11:19:27;;;;;;;4.20;2.10;;;;;;;18.04;53.57;101670.14;216231;1292;138862;-87
2023/05/19 11:24:43;;;;;;;7.20;2.70;;;;;;;18.11;53.94;101668.86;216692;1288;137976;-93
2023/05/19 11:29:44;;;;;;;7.20;3.30;;;;;;;18.19;54.01;101664.80;216291;1292;138017;-92
2023/05/19 11:34:47;;;;;;;6.80;2.00;;;;;;;18.17;54.22;101655.88;216702;1292;138283;-91
2023/05/19 11:39:48;;;;;;;8.30;3.10;;;;;;;18.25;54.10;101654.20;216172;1292;138844;-91
2023/05/19 11:44:49;;;;;;;9.00;3.00;;;;;;;18.33;54.24;101650.54;216794;1288;138697;-91
2023/05/19 11:49:56;;;;;;;6.20;2.90;;;;;;;18.53;53.74;101649.98;216462;1288;137944;-90
2023/05/19 11:55:00;;;;;;;8.50;3.20;;;;;;;18.64;54.81;101648.69;216941;1289;105162;-87
2023/05/19 12:00:01;;;;;;;7.80;2.70;;;;;;;18.99;54.02;101647.14;216275;1288;140003;-87
2023/05/19 12:05:06;;;;;;;7.30;2.90;;;;;;;19.07;53.03;101653.23;216757;1288;138232;-93
2023/05/19 12:10:09;;;;;;;7.20;2.90;;;;;;;19.12;53.97;101657.84;216194;1292;138135;-92
2023/05/19 12:15:10;;;;;;;6.60;2.60;;;;;;;19.23;52.78;101653.68;216712;1289;138252;-90
2023/05/19 12:20:11;;;;;;;7.10;2.60;;;;;;;19.17;52.93;101652.24;216181;1288;137983;-86
2023/05/19 12:25:12;;;;;;;7.90;3.20;;;;;;;19.07;52.27;101657.79;216955;1288;97954;-92
2023/05/19 12:30:12;;;;;;;6.30;2.60;;;;;;;18.74;52.54;101656.94;216369;1289;138007;-92
2023/05/19 12:40:58;;;;;;;10.70;2.90;;;;;;;18.43;54.12;101656.61;215705;1292;138341;-93
2023/05/19 12:46:14;;;;;;;8.40;3.10;;;;;;;18.16;54.20;101652.62;216713;1292;138258;-92
2023/05/19 12:51:22;;;;;;;8.50;4.20;;;;;;;17.88;54.88;101648.64;216259;1287;138014;-92
2023/05/19 12:56:25;;;;;;;8.40;3.40;;;;;;;17.61;55.00;101646.61;216826;1288;138016;-94
2023/05/19 13:01:28;;;;;;;9.70;3.30;;;;;;;17.39;55.25;101649.25;216336;1292;137906;-93
2023/05/19 13:06:29;;;;;;;7.10;2.70;;;;;;;17.18;56.03;101649.16;216910;1292;137878;-94
2023/05/19 13:11:29;;;;;;;6.20;2.90;;;;;;;17.01;57.08;101647.11;216189;1289;138096;-94
2023/05/19 13:16:30;;;;;;;7.90;2.90;;;;;;;16.97;57.44;101643.38;216728;1288;138295;-93
2023/05/19 13:21:32;;;;;;;6.60;2.70;;;;;;;17.00;57.66;101644.98;216224;1290;138444;-93
2023/05/19 13:26:33;;;;;;;8.60;2.80;;;;;;;16.95;57.63;101646.54;216707;1290;138390;-95
2023/05/19 13:31:35;;;;;;;6.50;2.50;;;;;;;16.72;57.41;101650.95;216250;1290;137959;-91
2023/05/19 13:36:35;;;;;;;7.10;2.60;;;;;;;16.55;58.56;101651.00;216748;1288;138283;-89
2023/05/19 13:41:37;;;;;;;7.60;3.00;;;;;;;16.46;59.26;101647.92;216367;1288;140253;-88
2023/05/19 13:46:37;;;;;;;5.80;2.30;;;;;;;16.37;59.52;101649.36;216911;1290;139570;-93
2023/05/19 13:51:43;;;;;;;5.30;2.20;;;;;;;16.26;59.28;101647.04;216300;1288;139174;-90
2023/05/19 13:56:47;;;;;;;5.70;2.40;;;;;;;16.14;59.59;101649.80;216833;1292;138139;-93
2023/05/19 14:01:56;;;;;;;7.70;2.20;;;;;;;16.06;59.96;101642.92;216532;1292;138330;-92
2023/05/19 14:12:58;;;;;;;5.90;2.30;;;;;;;15.77;61.34;101643.37;216404;1292;138503;-89
2023/05/19 14:23:57;;;;;;;5.20;1.70;;;;;;;15.57;62.88;101632.48;216435;1292;138893;-90
2023/05/19 14:28:59;;;;;;;6.80;2.30;;;;;;;15.55;62.43;101634.69;216631;1289;138346;-88
2023/05/19 14:34:01;;;;;;;11.00;2.60;;;;;;;15.55;63.17;101635.95;216913;1288;138207;-92
2023/05/19 14:39:02;;;;;;;6.70;2.10;;;;;;;15.52;63.83;101634.48;216144;1292;320085;-88
2023/05/19 14:44:05;;;;;;;6.30;2.50;;;;;;;15.56;64.45;101628.67;216958;1292;139929;-90
2023/05/19 14:49:05;;;;;;;5.80;2.00;;;;;;;15.66;64.65;101631.69;216521;1291;138590;-93
2023/05/19 14:54:06;;;;;;;4.60;2.10;;;;;;;15.76;64.68;101631.16;217043;1292;138726;-89
2023/05/19 14:59:07;;;;;;;4.50;1.90;;;;;;;15.88;64.47;101638.64;216452;1292;138433;-93
2023/05/19 15:04:28;;;;;;;4.90;2.10;;;;;;;15.89;64.98;101647.06;215905;1293;139258;-92
2023/05/19 15:09:48;;;;;;;5.30;2.30;;;;;;;15.82;65.12;101654.84;216361;1292;138195;-94
2023/05/19 15:14:52;;;;;;;5.50;2.20;;;;;;;15.71;65.54;101654.42;216908;1292;139266;-94
2023/05/19 15:19:54;;;;;;;4.70;2.30;;;;;;;15.67;65.54;101658.27;216588;1288;138396;-92
2023/05/19 15:24:58;;;;;;;5.60;2.10;;;;;;;15.60;65.88;101652.10;216878;1289;138512;-95
2023/05/19 15:30:08;;;;;;;3.60;1.70;;;;;;;15.55;66.84;101649.10;216501;1287;138611;-92
2023/05/19 15:35:10;;;;;;;4.50;2.20;;;;;;;15.58;67.20;101641.84;216994;1288;137316;-92
2023/05/19 15:40:25;;;;;;;5.50;2.10;;;;;;;15.62;67.28;101640.30;216507;1288;138039;-94
2023/05/19 15:45:26;;;;;;;4.50;1.80;;;;;;;15.68;67.18;101642.02;217037;1288;138885;-88
2023/05/19 15:50:34;;;;;;;5.90;2.30;;;;;;;15.58;67.62;101635.58;216514;1289;138421;-94
2023/05/19 15:55:35;;;;;;;6.20;2.30;;;;;;;15.46;68.08;101635.70;216945;1292;111861;-93
2023/05/19 16:00:35;;;;;;;5.20;2.10;;;;;;;15.32;68.53;101638.30;216243;1292;137994;-90
2023/05/19 16:05:36;;;;;;;5.00;2.50;;;;;;;15.30;69.23;101642.78;216936;1288;138057;-92
2023/05/19 16:10:37;;;;;;;5.90;2.60;;;;;;;15.19;69.71;101644.48;216438;1288;138275;-91
2023/05/19 16:15:38;;;;;;;7.70;2.50;;;;;;;15.11;70.13;101643.67;217045;1288;138166;-89
2023/05/19 16:26:37;;;;;;;6.90;2.60;;;;;;;14.95;71.03;101642.52;216836;1288;138081;-88
2023/05/19 16:31:37;;;;;;;5.50;2.50;;;;;;;14.87;71.26;101635.52;216671;1288;137845;-93
2023/05/19 16:36:38;;;;;;;5.10;2.30;;;;;;;14.86;71.35;101629.65;217063;1288;137932;-91
2023/05/19 16:53:35;;;;;;;9.00;3.10;;;;;;;14.79;72.73;101637.00;216474;1288;138487;-91
2023/05/19 16:58:37;;;;;;;8.40;3.30;;;;;;;14.59;72.51;101641.40;217109;1288;138190;-92
2023/05/19 17:03:38;;;;;;;6.90;3.40;;;;;;;14.42;73.24;101635.61;216697;1288;138239;-91
2023/05/19 17:08:40;;;;;;;8.50;4.00;;;;;;;14.35;73.78;101635.52;217053;1288;138216;-93
2023/05/19 17:13:42;;;;;;;10.60;3.30;;;;;;;14.34;74.10;101631.15;216749;1288;137903;-93
2023/05/19 17:18:46;;;;;;;6.50;3.10;;;;;;;14.29;74.46;101631.23;216988;1288;138841;-91
2023/05/19 17:23:48;;;;;;;7.70;3.30;;;;;;;14.23;74.82;101624.72;216863;1287;139323;-96
2023/05/19 17:34:51;;;;;;;9.10;3.90;;;;;;;14.10;76.00;101616.83;218490;1287;138949;-90
2023/05/19 17:39:51;;;;;;;8.50;3.10;;;;;;;14.13;76.17;101613.07;218105;1287;139307;-92
2023/05/19 17:44:52;;;;;;;8.80;3.10;;;;;;;14.13;76.51;101613.45;218703;1287;138669;-91
2023/05/19 17:49:53;;;;;;;10.30;4.30;;;;;;;14.04;76.87;101617.75;218159;1287;138860;-93
2023/05/19 17:54:53;;;;;;;9.30;3.30;;;;;;;13.98;77.43;101632.52;218603;1288;138603;-94
2023/05/19 17:59:54;;;;;;;7.50;3.40;;;;;;;13.90;77.61;101630.25;218121;1287;139531;-95
2023/05/19 18:04:55;;;;;;;8.40;3.60;;;;;;;13.87;78.22;101627.90;218754;1287;138764;-92
2023/05/19 18:09:56;;;;;;;14.60;4.00;;;;;;;13.82;78.21;101636.20;218072;1288;139018;-94
2023/05/19 18:14:57;;;;;;;9.50;3.60;;;;;;;13.76;78.48;101637.61;218734;1288;139037;-91
2023/05/19 18:19:57;;;;;;;9.70;3.60;;;;;;;13.67;79.00;101639.11;218049;1288;139294;-94
2023/05/19 18:24:58;;;;;;;7.20;3.30;;;;;;;13.56;79.87;101636.52;218348;1287;140163;-91
2023/05/19 18:29:58;;;;;;;8.90;3.70;;;;;;;13.48;79.79;101642.71;217831;1288;138950;-92
2023/05/19 18:35:01;;;;;;;11.90;4.20;;;;;;;13.44;80.45;101645.77;218386;1289;138776;-92
2023/05/19 18:40:01;;;;;;;8.30;3.60;;;;;;;13.41;80.87;101649.05;217798;1288;139627;-91
2023/05/19 18:45:02;;;;;;;7.60;3.30;;;;;;;13.37;81.11;101649.70;218368;1288;141792;-96
2023/05/19 18:50:03;;;;;;;9.40;3.50;;;;;;;13.35;81.47;101647.59;217860;1288;139142;-92
2023/05/19 18:55:04;;;;;;;9.30;3.80;;;;;;;13.31;81.63;101649.81;218497;1288;96682;-95
2023/05/19 19:00:05;;;;;;;11.30;4.60;;;;;;;13.21;82.56;101644.55;217915;1288;138802;-92
2023/05/19 19:05:08;;;;;;;7.00;3.10;;;;;;;13.13;82.86;101651.59;218658;1288;138847;-94
2023/05/19 19:10:09;;;;;;;9.50;4.10;;;;;;;13.12;82.97;101649.67;218078;1288;140275;-96
2023/05/19 19:15:10;;;;;;;6.70;3.20;;;;;;;13.11;83.04;101648.07;218851;1288;138725;-94
2023/05/19 19:20:11;;;;;;;9.70;4.00;;;;;;;13.12;83.12;101647.91;218149;1287;139124;-93
2023/05/19 19:25:11;;;;;;;8.30;3.90;;;;;;;13.10;83.19;101646.23;218638;1287;95880;-90
2023/05/19 19:30:12;;;;;;;6.90;3.60;;;;;;;13.07;83.50;101650.27;217942;1287;139540;-90
2023/05/19 19:35:15;;;;;;;10.30;3.70;;;;;;;13.04;83.62;101655.02;218424;1287;139107;-93
2023/05/19 19:40:16;;;;;;;8.10;3.80;;;;;;;13.03;83.90;101655.47;217893;1288;138909;-92
2023/05/19 19:45:19;;;;;;;10.20;3.70;;;;;;;13.00;84.25;101659.11;218600;1288;139468;-92
2023/05/19 19:50:20;;;;;;;7.70;3.40;;;;;;;12.98;84.32;101656.47;218085;1287;139000;-93
2023/05/19 19:55:21;;;;;;;9.20;3.30;;;;;;;12.96;84.30;101655.65;218621;1287;104466;-90
2023/05/19 20:00:22;;;;;;;8.40;3.80;;;;;;;12.94;84.68;101659.46;217927;1288;138939;-91
2023/05/19 20:05:22;;;;;;;9.70;4.10;;;;;;;12.90;84.97;101659.27;218509;1287;138892;-92
2023/05/19 20:10:23;;;;;;;9.70;3.90;;;;;;;12.85;85.49;101658.85;217988;1288;138921;-91
2023/05/19 20:15:23;;;;;;;11.10;4.30;;;;;;;12.81;85.42;101662.95;218461;1288;138682;-90
2023/05/19 20:20:23;;;;;;;10.10;4.00;;;;;;;12.82;85.58;101666.77;218006;1288;138990;-89
2023/05/19 20:25:24;;;;;;;9.40;4.30;;;;;;;12.79;86.14;101666.38;218538;1288;96583;-91
2023/05/19 20:30:25;;;;;;;9.90;4.60;;;;;;;12.73;86.75;101664.60;217846;1288;138903;-90
2023/05/19 20:35:26;;;;;;;8.90;3.60;;;;;;;12.67;86.77;101667.70;218304;1287;138692;-91
2023/05/19 20:40:26;;;;;;;9.70;4.30;;;;;;;12.67;87.22;101668.64;217753;1287;139097;-90
2023/05/19 20:45:27;;;;;;;10.10;4.40;;;;;;;12.60;88.17;101673.06;218339;1287;140093;-92
2023/05/19 20:50:27;;;;;;;10.40;4.50;;;;;;;12.55;88.40;101672.16;217818;1287;139296;-89
2023/05/19 20:55:27;;;;;;;10.40;4.70;;;;;;;12.53;88.38;101668.72;218549;1288;95991;-93
2023/05/19 21:00:34;;;;;;;10.30;4.80;;;;;;;12.52;88.91;101670.45;217964;1287;138600;-91
2023/05/19 21:05:35;;;;;;;10.60;4.90;;;;;;;12.50;88.77;101666.84;218399;1288;139182;-91
2023/05/19 21:10:36;;;;;;;13.90;4.80;;;;;;;12.52;88.99;101669.17;217939;1287;142336;-91
2023/05/19 21:15:36;;;;;;;10.70;4.70;;;;;;;12.52;89.18;101665.14;218485;1287;139181;-91
2023/05/19 21:20:37;;;;;;;11.40;4.80;;;;;;;12.52;89.09;101667.17;217959;1288;141322;-91
2023/05/19 21:25:38;;;;;;;11.60;5.00;;;;;;;12.54;89.00;101672.45;218513;1288;96548;-91
2023/05/19 21:30:39;;;;;;;10.80;4.60;;;;;;;12.53;88.85;101673.61;218037;1288;139224;-92
2023/05/19 21:35:39;;;;;;;8.90;4.00;;;;;;;12.53;89.21;101679.59;218573;1289;138861;-92
2023/05/19 21:40:40;;;;;;;12.90;5.20;;;;;;;12.52;89.19;101679.80;217949;1287;139542;-93
2023/05/19 21:45:40;;;;;;;8.00;4.20;;;;;;;12.52;89.69;101684.33;218454;1287;139323;-93
2023/05/19 21:50:40;;;;;;;13.70;4.70;;;;;;;12.51;89.23;101681.83;217950;1288;139726;-92
2023/05/19 21:55:42;;;;;;;8.30;3.90;;;;;;;12.50;89.76;101681.97;218813;1287;96533;-92
2023/05/19 22:00:53;;;;;;;9.40;4.20;;;;;;;12.50;89.59;101673.22;218065;1288;138764;-91
2023/05/19 22:05:55;;;;;;;10.30;4.90;;;;;;;12.50;90.24;101678.13;218566;1290;138801;-94
2023/05/19 22:10:55;;;;;;;10.50;5.10;;;;;;;12.47;90.36;101681.67;217864;1289;139453;-93
2023/05/19 22:15:56;;;;;;;13.20;4.90;;;;;;;12.46;90.70;101680.39;218567;1287;140000;-91
2023/05/19 22:20:57;;;;;;;12.80;5.40;;;;;;;12.43;91.00;101678.03;217926;1288;139620;-90
2023/05/19 22:25:57;;;;;;;9.70;4.30;;;;;;;12.41;91.21;101677.03;218723;1287;96048;-90
2023/05/19 22:30:57;;;;;;;11.70;5.30;;;;;;;12.40;91.21;101683.08;218044;1287;139433;-92
2023/05/19 22:35:58;;;;;;;12.50;5.10;;;;;;;12.40;92.06;101680.33;218584;1287;138970;-91
2023/05/19 22:40:59;;;;;;;11.80;5.30;;;;;;;12.35;91.95;101676.10;218071;1288;139023;-92
2023/05/19 22:45:59;;;;;;;12.90;5.60;;;;;;;12.33;92.44;101679.00;218591;1287;139403;-91
2023/05/19 22:51:00;;;;;;;13.00;5.90;;;;;;;12.30;92.87;101670.52;218029;1287;139156;-91
2023/05/19 22:56:00;;;;;;;13.80;6.00;;;;;;;12.28;93.16;101665.21;218682;1288;96058;-91
2023/05/19 23:01:01;;;;;;;12.50;5.90;;;;;;;12.26;93.67;101660.34;218063;1287;138667;-88
2023/05/19 23:06:01;;;;;;;12.80;5.90;;;;;;;12.21;94.32;101659.83;218540;1288;138693;-88
2023/05/19 23:11:02;;;;;;;10.50;5.40;;;;;;;12.20;94.68;101659.34;217841;1288;139213;-90
2023/05/19 23:16:03;;;;;;;13.50;6.80;;;;;;;12.18;95.60;101659.77;218621;1287;138906;-90
2023/05/19 23:21:04;;;;;;;11.90;5.70;;;;;;;12.16;95.97;101659.08;217944;1289;139151;-87
2023/05/19 23:26:04;;;;;;;12.50;5.80;;;;;;;12.15;96.60;101659.38;218475;1287;139137;-88
2023/05/19 23:31:05;;;;;;;12.70;6.00;;;;;;;12.12;97.01;101659.55;218128;1288;140009;-88
2023/05/19 23:36:07;;;;;;;11.60;6.30;;;;;;;12.10;97.55;101655.15;218551;1288;138761;-87
2023/05/19 23:41:07;;;;;;;14.60;6.10;;;;;;;12.06;98.06;101653.64;217995;1288;139892;-88
2023/05/19 23:46:07;;;;;;;11.90;6.70;;;;;;;12.02;98.49;101658.27;218598;1288;139703;-89
2023/05/19 23:51:08;;;;;;;17.80;6.00;;;;;;;12.01;98.84;101655.06;218110;1287;139297;-87